createdAt,value
2023-02-03T00:00:53.562Z,100921.41
2023-02-03T00:03:20.140Z,100915.28
2023-02-03T00:05:47.185Z,100918.03
2023-02-03T00:08:17.961Z,100917.13
2023-02-03T00:10:45.104Z,100916.25
2023-02-03T00:13:11.869Z,100905.66
2023-02-03T00:15:38.498Z,100908.91
2023-02-03T00:18:05.123Z,100896.91
2023-02-03T00:20:31.749Z,100902.66
2023-02-03T00:23:09.383Z,100904.50
2023-02-03T00:25:36.980Z,100906.38
2023-02-03T00:28:04.307Z,100904.47
2023-02-03T00:30:31.133Z,100898.56
2023-02-03T00:32:57.688Z,100904.59
2023-02-03T00:35:24.201Z,100898.56
2023-02-03T00:37:53.321Z,100882.88
2023-02-03T00:40:21.748Z,100876.91
2023-02-03T00:42:48.363Z,100890.56
2023-02-03T00:45:15.140Z,100875.38
2023-02-03T00:47:41.765Z,100869.97
2023-02-03T00:50:10.154Z,100862.06
2023-02-03T00:52:37.029Z,100859.59
2023-02-03T00:55:04.880Z,100852.44
2023-02-03T00:57:31.646Z,100855.84
2023-02-03T00:59:58.146Z,100836.97
2023-02-03T01:02:25.003Z,100842.28
2023-02-03T01:04:51.696Z,100833.56
2023-02-03T01:07:18.739Z,100825.06
2023-02-03T01:09:45.353Z,100822.28
2023-02-03T01:12:11.949Z,100825.88
2023-02-03T01:14:38.563Z,100820.50
2023-02-03T01:17:05.265Z,100811.16
2023-02-03T01:19:31.950Z,100805.91
2023-02-03T01:21:58.622Z,100797.38
2023-02-03T01:24:25.193Z,100793.00
2023-02-03T01:26:51.731Z,100777.41
2023-02-03T01:29:18.296Z,100778.13
2023-02-03T01:31:45.022Z,100769.84
2023-02-03T01:34:14.231Z,100766.03
2023-02-03T01:36:40.873Z,100759.22
2023-02-03T01:39:08.410Z,100757.50
2023-02-03T01:41:37.961Z,100752.25
2023-02-03T01:44:35.443Z,100735.75
2023-02-03T01:47:03.037Z,100747.94
2023-02-03T01:49:36.650Z,100740.25
2023-02-03T01:52:04.012Z,100749.84
2023-02-03T01:54:37.596Z,100739.66
2023-02-03T01:57:14.501Z,100744.28
2023-02-03T01:59:42.406Z,100733.34
2023-02-03T02:02:10.237Z,100721.56
2023-02-03T02:05:16.101Z,100724.00
2023-02-03T02:07:43.730Z,100713.19
2023-02-03T02:10:11.254Z,100701.31
2023-02-03T02:12:38.147Z,100688.66
2023-02-03T02:15:05.507Z,100691.03
2023-02-03T02:17:44.709Z,100675.56
2023-02-03T02:20:37.570Z,100678.69
2023-02-03T02:23:47.132Z,100677.16
2023-02-03T02:26:34.786Z,100675.19
2023-02-03T02:29:01.288Z,100656.81
2023-02-03T02:31:51.027Z,100668.78
2023-02-03T02:34:42.589Z,100658.25
2023-02-03T02:37:48.093Z,100652.16
2023-02-03T02:40:29.449Z,100644.25
2023-02-03T02:43:17.861Z,100641.59
2023-02-03T02:45:56.265Z,100638.19
2023-02-03T02:48:38.712Z,100633.16
2023-02-03T02:51:07.923Z,100632.03
2023-02-03T02:53:38.849Z,100624.81
2023-02-03T02:56:09.764Z,100617.41
2023-02-03T02:58:41.029Z,100606.69
2023-02-03T03:01:09.958Z,100598.19
2023-02-03T03:03:40.488Z,100580.63
2023-02-03T03:06:11.154Z,100578.94
2023-02-03T03:08:45.540Z,100576.97
2023-02-03T03:11:12.818Z,100555.53
2023-02-03T03:13:45.516Z,100547.31
2023-02-03T03:16:15.184Z,100542.34
2023-02-03T03:18:48.426Z,100541.56
2023-02-03T03:21:22.246Z,100543.63
2023-02-03T03:23:52.203Z,100525.09
2023-02-03T03:26:35.749Z,100529.88
2023-02-03T03:29:18.460Z,100526.53
2023-02-03T03:31:46.533Z,100527.53
2023-02-03T03:34:14.738Z,100522.38
2023-02-03T03:36:44.646Z,100524.72
2023-02-03T03:39:28.285Z,100519.91
2023-02-03T03:42:01.314Z,100519.41
2023-02-03T03:44:36.073Z,100509.44
2023-02-03T03:47:27.738Z,100524.59
2023-02-03T03:49:56.726Z,100505.25
2023-02-03T03:52:29.002Z,100526.50
2023-02-03T03:54:57.766Z,100509.53
2023-02-03T03:57:34.682Z,100494.34
2023-02-03T04:00:04.113Z,100502.03
2023-02-03T04:02:34.025Z,100511.50
2023-02-03T04:05:01.791Z,100497.28
2023-02-03T04:07:39.433Z,100465.53
2023-02-03T04:10:11.372Z,100460.13
2023-02-03T04:12:37.936Z,100448.44
2023-02-03T04:15:04.778Z,100403.78
2023-02-03T04:17:34.060Z,100450.16
2023-02-03T04:20:00.647Z,100433.19
2023-02-03T04:22:27.196Z,100415.41
2023-02-03T04:24:53.783Z,100416.19
2023-02-03T04:27:20.529Z,100412.53
2023-02-03T04:29:47.616Z,100409.03
2023-02-03T04:32:14.133Z,100397.41
2023-02-03T04:34:40.680Z,100435.31
2023-02-03T04:37:07.363Z,100440.56
2023-02-03T04:39:33.914Z,100417.72
2023-02-03T04:42:00.476Z,100435.09
2023-02-03T04:44:27.003Z,100414.78
2023-02-03T04:46:53.568Z,100412.25
2023-02-03T04:49:20.215Z,100425.44
2023-02-03T04:51:49.613Z,100422.97
2023-02-03T04:54:16.246Z,100423.06
2023-02-03T04:56:42.963Z,100429.19
2023-02-03T04:59:09.691Z,100420.59
2023-02-03T05:01:36.283Z,100417.03
2023-02-03T05:04:02.855Z,100415.28
2023-02-03T05:06:30.412Z,100413.56
2023-02-03T05:08:56.974Z,100395.22
2023-02-03T05:11:23.537Z,100414.28
2023-02-03T05:13:50.497Z,100412.50
2023-02-03T05:16:17.441Z,100393.03
2023-02-03T05:18:44.097Z,100385.13
2023-02-03T05:21:10.672Z,100374.63
2023-02-03T05:23:37.289Z,100382.22
2023-02-03T05:26:04.470Z,100389.97
2023-02-03T05:28:31.107Z,100379.47
2023-02-03T05:31:01.824Z,100361.09
2023-02-03T05:33:29.501Z,100363.44
2023-02-03T05:35:56.591Z,100345.06
2023-02-03T05:38:23.510Z,100332.72
2023-02-03T05:41:09.981Z,100331.44
2023-02-03T05:43:37.433Z,100383.84
2023-02-03T05:46:06.243Z,100344.41
2023-02-03T05:48:33.978Z,100360.19
2023-02-03T05:51:00.637Z,100354.19
2023-02-03T05:53:27.668Z,100346.19
2023-02-03T05:55:54.284Z,100351.34
2023-02-03T05:58:20.905Z,100371.50
2023-02-03T06:00:47.493Z,100375.63
2023-02-03T06:03:14.095Z,100368.50
2023-02-03T06:05:41.461Z,100393.88
2023-02-03T06:08:08.741Z,100335.91
2023-02-03T06:10:35.451Z,100334.91
2023-02-03T06:13:13.858Z,100350.78
2023-02-03T06:15:40.751Z,100334.84
2023-02-03T06:18:07.687Z,100354.97
2023-02-03T06:20:34.742Z,100364.56
2023-02-03T06:23:01.477Z,100357.59
2023-02-03T06:25:29.036Z,100349.56
2023-02-03T06:27:55.754Z,100325.06
2023-02-03T06:30:23.824Z,100332.84
2023-02-03T06:32:50.872Z,100337.03
2023-02-03T06:35:18.179Z,100324.69
2023-02-03T06:37:44.899Z,100329.72
2023-02-03T06:40:12.704Z,100320.09
2023-02-03T06:42:39.363Z,100311.88
2023-02-03T06:45:06.497Z,100319.22
2023-02-03T06:47:33.079Z,100309.84
2023-02-03T06:49:59.691Z,100314.59
2023-02-03T06:52:26.365Z,100325.41
2023-02-03T06:54:52.918Z,100299.84
2023-02-03T06:57:19.611Z,100300.84
2023-02-03T06:59:46.336Z,100293.88
2023-02-03T07:02:13.091Z,100295.50
2023-02-03T07:04:39.877Z,100310.34
2023-02-03T07:07:06.433Z,100275.47
2023-02-03T07:09:33.068Z,100265.97
2023-02-03T07:11:59.970Z,100258.91
2023-02-03T07:14:26.586Z,100248.50
2023-02-03T07:16:54.404Z,100275.91
2023-02-03T07:19:21.046Z,100256.56
2023-02-03T07:21:47.648Z,100253.72
2023-02-03T07:24:14.941Z,100256.28
2023-02-03T07:26:41.534Z,100247.25
2023-02-03T07:29:08.419Z,100237.91
2023-02-03T07:31:35.805Z,100221.66
2023-02-03T07:34:02.895Z,100236.41
2023-02-03T07:36:29.474Z,100219.00
2023-02-03T07:38:56.665Z,100248.59
2023-02-03T07:41:23.309Z,100256.63
2023-02-03T07:43:50.080Z,100238.91
2023-02-03T07:46:16.822Z,100225.28
2023-02-03T07:48:43.465Z,100234.03
2023-02-03T07:51:10.065Z,100231.38
2023-02-03T07:53:36.776Z,100258.94
2023-02-03T07:56:05.053Z,100238.06
2023-02-03T07:58:32.692Z,100224.50
2023-02-03T08:01:00.208Z,100237.09
2023-02-03T08:03:26.880Z,100238.38
2023-02-03T08:05:53.597Z,100233.19
2023-02-03T08:08:20.207Z,100219.28
2023-02-03T08:10:46.850Z,100219.16
2023-02-03T08:13:13.759Z,100218.91
2023-02-03T08:15:40.407Z,100227.03
2023-02-03T08:18:08.843Z,100187.22
2023-02-03T08:20:35.747Z,100199.13
2023-02-03T08:23:02.272Z,100194.19
2023-02-03T08:25:28.967Z,100173.78
2023-02-03T08:27:55.664Z,100181.53
2023-02-03T08:30:23.167Z,100202.63
2023-02-03T08:32:50.004Z,100189.31
2023-02-03T08:35:16.713Z,100192.03
2023-02-03T08:37:43.361Z,100176.34
2023-02-03T08:40:12.075Z,100186.00
2023-02-03T08:42:38.856Z,100187.63
2023-02-03T08:45:06.258Z,100195.41
2023-02-03T08:47:32.884Z,100177.78
2023-02-03T08:49:59.560Z,100173.69
2023-02-03T08:52:26.161Z,100158.94
2023-02-03T08:54:52.789Z,100166.19
2023-02-03T08:57:20.678Z,100164.50
2023-02-03T08:59:47.462Z,100159.16
2023-02-03T09:02:16.994Z,100161.25
2023-02-03T09:04:43.959Z,100166.13
2023-02-03T09:07:11.190Z,100160.00
2023-02-03T09:09:38.332Z,100159.84
2023-02-03T09:12:06.944Z,100159.94
2023-02-03T09:14:34.249Z,100153.75
2023-02-03T09:17:03.500Z,100162.66
2023-02-03T09:19:30.827Z,100131.16
2023-02-03T09:21:57.890Z,100148.97
2023-02-03T09:24:25.200Z,100128.84
2023-02-03T09:26:51.851Z,100145.94
2023-02-03T09:29:19.247Z,100104.75
2023-02-03T09:31:49.212Z,100120.66
2023-02-03T09:34:15.963Z,100105.66
2023-02-03T09:36:43.192Z,100102.84
2023-02-03T09:39:09.895Z,100087.03
2023-02-03T09:41:45.464Z,100091.91
2023-02-03T09:44:24.120Z,100060.59
2023-02-03T09:46:59.084Z,100055.47
2023-02-03T09:49:38.697Z,100022.25
2023-02-03T09:52:19.718Z,100034.69
2023-02-03T09:55:01.420Z,100033.97
2023-02-03T09:57:31.342Z,100026.88
2023-02-03T10:00:02.646Z,100036.63
2023-02-03T10:02:48.829Z,100025.88
2023-02-03T10:05:28.668Z,100015.91
2023-02-03T10:08:13.458Z,100010.53
2023-02-03T10:10:49.135Z,100021.69
2023-02-03T10:13:45.484Z,100012.84
2023-02-03T10:16:33.487Z,100001.25
2023-02-03T10:19:07.324Z,99990.22
2023-02-03T10:21:38.481Z,99994.44
2023-02-03T10:24:20.250Z,99997.25
2023-02-03T10:26:47.151Z,99978.84
2023-02-03T10:29:42.649Z,99992.66
2023-02-03T10:32:11.440Z,99962.91
2023-02-03T10:34:39.232Z,99990.91
2023-02-03T10:37:29.126Z,99952.56
2023-02-03T10:39:59.208Z,99976.03
2023-02-03T10:42:46.124Z,99968.34
2023-02-03T10:45:15.582Z,99957.06
2023-02-03T10:47:47.504Z,99948.00
2023-02-03T10:50:24.107Z,99935.50
2023-02-03T10:52:50.828Z,99965.78
2023-02-03T10:55:26.610Z,99948.00
2023-02-03T10:57:56.419Z,99929.22
2023-02-03T11:00:33.029Z,99919.97
2023-02-03T11:03:21.278Z,99902.19
2023-02-03T11:05:47.868Z,99906.56
2023-02-03T11:08:16.103Z,99950.09
2023-02-03T11:10:43.918Z,99919.81
2023-02-03T11:13:19.604Z,99914.34
2023-02-03T11:15:53.379Z,99960.34
2023-02-03T11:18:38.141Z,99939.06
2023-02-03T11:21:18.114Z,99895.16
2023-02-03T11:23:46.634Z,99916.28
2023-02-03T11:26:17.944Z,99933.38
2023-02-03T11:28:47.784Z,99894.25
2023-02-03T11:31:26.835Z,99880.41
2023-02-03T11:34:23.999Z,99915.00
2023-02-03T11:36:51.715Z,99934.00
2023-02-03T11:39:27.676Z,99920.59
2023-02-03T11:41:55.230Z,99924.31
2023-02-03T11:44:31.437Z,99909.31
2023-02-03T11:47:04.001Z,99893.53
2023-02-03T11:49:39.656Z,99906.56
2023-02-03T11:52:29.735Z,99884.53
2023-02-03T11:55:05.258Z,99846.66
2023-02-03T11:57:38.066Z,99886.28
2023-02-03T12:00:31.019Z,99854.63
2023-02-03T12:03:15.801Z,99860.03
2023-02-03T12:05:51.422Z,99827.00
2023-02-03T12:08:44.084Z,99828.41
2023-02-03T12:11:51.153Z,99815.25
2023-02-03T12:14:35.580Z,99760.81
2023-02-03T12:17:17.933Z,99731.78
2023-02-03T12:19:56.707Z,99806.91
2023-02-03T12:22:37.774Z,99830.41
2023-02-03T12:25:41.440Z,99832.78
2023-02-03T12:28:33.599Z,99844.66
2023-02-03T12:31:09.505Z,99810.50
2023-02-03T12:33:44.342Z,99841.81
2023-02-03T12:36:16.444Z,99865.25
2023-02-03T12:38:56.262Z,99820.19
2023-02-03T12:41:31.897Z,99860.47
2023-02-03T12:44:05.087Z,99856.91
2023-02-03T12:46:46.817Z,99874.59
2023-02-03T12:49:18.788Z,99870.28
2023-02-03T12:52:00.918Z,99820.22
2023-02-03T12:55:01.241Z,99816.25
2023-02-03T12:57:39.842Z,99810.16
2023-02-03T13:00:34.818Z,99780.44
2023-02-03T13:03:10.224Z,99798.00
2023-02-03T13:06:02.358Z,99797.34
2023-02-03T13:09:14.696Z,99833.94
2023-02-03T13:12:03.187Z,99816.91
2023-02-03T13:14:36.345Z,99872.81
2023-02-03T13:17:13.448Z,99924.38
2023-02-03T13:19:51.480Z,99953.66
2023-02-03T13:22:19.386Z,99950.41
2023-02-03T13:24:53.627Z,99931.72
2023-02-03T13:27:29.211Z,99940.97
2023-02-03T13:30:14.590Z,99950.38
2023-02-03T13:33:08.807Z,99921.72
2023-02-03T13:35:48.819Z,99942.56
2023-02-03T13:38:37.076Z,99924.28
2023-02-03T13:41:19.151Z,99926.41
2023-02-03T13:43:50.082Z,99899.47
2023-02-03T13:46:27.510Z,99921.16
2023-02-03T13:48:56.989Z,99924.31
2023-02-03T13:51:46.005Z,99918.63
2023-02-03T13:54:28.583Z,99978.34
2023-02-03T13:57:04.547Z,99954.94
2023-02-03T13:59:37.071Z,99941.09
2023-02-03T14:02:32.083Z,99940.19
2023-02-03T14:05:00.047Z,99948.22
2023-02-03T14:07:29.338Z,100011.25
2023-02-03T14:10:24.111Z,99959.94
2023-02-03T14:12:50.621Z,99973.28
2023-02-03T14:15:26.754Z,99951.53
2023-02-03T14:17:54.709Z,99970.03
2023-02-03T14:20:29.320Z,99967.97
2023-02-03T14:23:04.742Z,99991.50
2023-02-03T14:25:33.863Z,100006.44
2023-02-03T14:28:06.793Z,99980.72
2023-02-03T14:31:13.841Z,100021.97
2023-02-03T14:34:05.952Z,99970.38
2023-02-03T14:36:33.639Z,99993.56
2023-02-03T14:39:03.339Z,100001.59
2023-02-03T14:41:51.228Z,99987.66
2023-02-03T14:44:39.209Z,99996.69
2023-02-03T14:47:14.390Z,99987.84
2023-02-03T14:50:15.331Z,100026.53
2023-02-03T14:52:47.900Z,100011.94
2023-02-03T14:55:36.344Z,100006.06
2023-02-03T14:58:14.006Z,100012.00
2023-02-03T15:00:40.543Z,100010.47
2023-02-03T15:03:09.937Z,100000.97
2023-02-03T15:05:41.416Z,100016.75
2023-02-03T15:08:30.687Z,100001.13
2023-02-03T15:10:57.410Z,100008.94
2023-02-03T15:13:26.261Z,100030.03
2023-02-03T15:15:57.965Z,100015.78
2023-02-03T15:18:36.222Z,100027.31
2023-02-03T15:21:03.790Z,100030.34
2023-02-03T15:23:38.893Z,100044.66
2023-02-03T15:26:14.624Z,100023.78
2023-02-03T15:28:41.324Z,100024.78
2023-02-03T15:31:08.003Z,100028.34
2023-02-03T15:33:37.068Z,100051.94
2023-02-03T15:36:12.726Z,100050.91
2023-02-03T15:38:44.395Z,100063.81
2023-02-03T15:41:25.751Z,100060.94
2023-02-03T15:44:08.718Z,100053.75
2023-02-03T15:46:38.943Z,100049.72
2023-02-03T15:49:17.965Z,100068.84
2023-02-03T15:51:51.875Z,100053.91
2023-02-03T15:54:24.813Z,100084.38
2023-02-03T15:56:58.565Z,100061.66
2023-02-03T15:59:29.358Z,100077.44
2023-02-03T16:01:56.726Z,100067.69
2023-02-03T16:04:25.413Z,100076.66
2023-02-03T16:06:53.900Z,100067.44
2023-02-03T16:09:26.252Z,100072.59
2023-02-03T16:12:14.507Z,100098.03
2023-02-03T16:14:42.148Z,100084.31
2023-02-03T16:17:36.663Z,100116.69
2023-02-03T16:20:12.158Z,100105.16
2023-02-03T16:22:47.352Z,100108.50
2023-02-03T16:25:19.878Z,100109.25
2023-02-03T16:28:21.412Z,100102.53
2023-02-03T16:31:19.932Z,100111.97
2023-02-03T16:34:07.031Z,100132.94
2023-02-03T16:36:52.903Z,100162.72
2023-02-03T16:39:38.035Z,100132.09
2023-02-03T16:42:32.579Z,100120.34
2023-02-03T16:45:17.719Z,100119.16
2023-02-03T16:48:04.423Z,100126.31
2023-02-03T16:50:50.127Z,100131.88
2023-02-03T16:53:23.401Z,100131.69
2023-02-03T16:55:51.674Z,100139.44
2023-02-03T16:58:18.834Z,100135.81
2023-02-03T17:00:48.399Z,100125.34
2023-02-03T17:03:16.716Z,100137.56
2023-02-03T17:05:45.030Z,100140.97
2023-02-03T17:08:12.662Z,100155.28
2023-02-03T17:10:41.354Z,100143.47
2023-02-03T17:13:08.376Z,100159.06
2023-02-03T17:15:39.889Z,100197.50
2023-02-03T17:18:06.426Z,100173.75
2023-02-03T17:20:32.995Z,100156.19
2023-02-03T17:22:59.578Z,100152.97
2023-02-03T17:25:26.138Z,100185.22
2023-02-03T17:27:52.721Z,100172.06
2023-02-03T17:30:19.402Z,100190.31
2023-02-03T17:32:45.984Z,100167.91
2023-02-03T17:35:12.670Z,100166.97
2023-02-03T17:37:39.285Z,100185.84
2023-02-03T17:54:04.832Z,100139.31
2023-02-03T17:56:32.787Z,100203.00
2023-02-03T17:59:01.592Z,100182.88
2023-02-03T18:01:28.660Z,100218.88
2023-02-03T18:03:57.416Z,100218.78
2023-02-03T18:06:25.367Z,100183.75
2023-02-03T18:08:52.620Z,100199.13
2023-02-03T18:11:20.795Z,100199.28
2023-02-03T18:13:49.207Z,100242.16
2023-02-03T18:16:22.845Z,100233.56
2023-02-03T18:18:51.383Z,100272.25
2023-02-03T18:21:18.072Z,100251.13
2023-02-03T18:23:44.722Z,100243.53
2023-02-03T18:26:12.834Z,100241.91
2023-02-03T18:28:40.603Z,100230.84
2023-02-03T18:31:10.626Z,100219.44
2023-02-03T18:33:38.141Z,100237.13
2023-02-03T18:36:05.791Z,100299.41
2023-02-03T18:38:34.454Z,100239.03
2023-02-03T18:41:06.184Z,100278.72
2023-02-03T18:43:33.074Z,100233.19
2023-02-03T18:46:00.329Z,100276.88
2023-02-03T18:48:26.940Z,100252.44
2023-02-03T18:50:53.441Z,100240.28
2023-02-03T18:53:19.996Z,100250.81
2023-02-03T18:55:46.579Z,100266.44
2023-02-03T18:58:13.657Z,100253.50
2023-02-03T19:00:40.981Z,100242.13
2023-02-03T19:03:08.011Z,100270.34
2023-02-03T19:05:34.607Z,100265.50
2023-02-03T19:08:01.209Z,100259.91
2023-02-03T19:10:28.163Z,100257.56
2023-02-03T19:12:54.987Z,100261.19
2023-02-03T19:15:21.666Z,100275.03
2023-02-03T19:17:48.232Z,100247.75
2023-02-03T19:20:14.874Z,100252.03
2023-02-03T19:22:41.406Z,100259.13
2023-02-03T19:25:08.229Z,100289.44
2023-02-03T19:27:34.781Z,100252.78
2023-02-03T19:30:01.364Z,100251.97
2023-02-03T19:32:27.948Z,100231.78
2023-02-03T19:34:54.532Z,100269.25
2023-02-03T19:37:21.160Z,100302.59
2023-02-03T19:39:50.335Z,100270.91
2023-02-03T19:42:17.508Z,100287.53
2023-02-03T19:44:44.128Z,100283.28
2023-02-03T19:47:10.742Z,100297.72
2023-02-03T19:49:37.357Z,100281.28
2023-02-03T19:52:04.249Z,100288.63
2023-02-03T19:54:30.997Z,100267.88
2023-02-03T19:56:57.602Z,100282.84
2023-02-03T19:59:24.228Z,100274.59
2023-02-03T20:01:50.891Z,100314.94
2023-02-03T20:04:17.472Z,100278.44
2023-02-03T20:06:44.121Z,100307.41
2023-02-03T20:09:11.100Z,100293.81
2023-02-03T20:11:37.711Z,100291.34
2023-02-03T20:14:04.401Z,100304.09
2023-02-03T20:16:31.051Z,100310.41
2023-02-03T20:18:58.141Z,100297.13
2023-02-03T20:21:24.742Z,100286.56
2023-02-03T20:23:51.322Z,100282.16
2023-02-03T20:26:17.950Z,100309.16
2023-02-03T20:28:45.935Z,100279.44
2023-02-03T20:31:13.175Z,100300.59
2023-02-03T20:33:39.796Z,100307.06
2023-02-03T20:36:06.775Z,100299.72
2023-02-03T20:38:33.279Z,100257.34
2023-02-03T20:40:59.840Z,100293.63
2023-02-03T20:43:27.799Z,100295.72
2023-02-03T20:45:54.875Z,100300.75
2023-02-03T20:48:23.861Z,100333.31
2023-02-03T20:50:50.472Z,100253.94
2023-02-03T20:53:19.393Z,100318.63
2023-02-03T20:55:46.284Z,100299.31
2023-02-03T20:58:18.968Z,100307.38
2023-02-03T21:00:46.697Z,100289.06
2023-02-03T21:03:33.307Z,100327.34
2023-02-03T21:05:59.953Z,100297.59
2023-02-03T21:08:27.618Z,100302.84
2023-02-03T21:10:54.760Z,100322.97
2023-02-03T21:13:24.274Z,100323.31
2023-02-03T21:15:53.386Z,100337.41
2023-02-03T21:18:33.549Z,100323.44
2023-02-03T21:21:01.318Z,100329.72
2023-02-03T21:23:40.080Z,100334.25
2023-02-03T21:26:30.125Z,100323.56
2023-02-03T21:28:59.173Z,100346.13
2023-02-03T21:31:31.632Z,100327.53
2023-02-03T21:34:00.509Z,100344.66
2023-02-03T21:36:37.903Z,100343.72
2023-02-03T21:39:26.137Z,100340.00
2023-02-03T21:41:52.635Z,100326.09
2023-02-03T21:44:28.242Z,100336.59
2023-02-03T21:46:55.043Z,100366.22
2023-02-03T21:49:22.238Z,100347.72
2023-02-03T21:51:49.384Z,100323.13
2023-02-03T21:54:33.526Z,100372.91
2023-02-03T21:57:00.995Z,100367.88
2023-02-03T21:59:36.855Z,100364.31
2023-02-03T22:02:03.590Z,100424.78
2023-02-03T22:04:31.633Z,100400.16
2023-02-03T22:06:58.272Z,100376.59
2023-02-03T22:09:26.334Z,100401.19
2023-02-03T22:11:53.662Z,100413.38
2023-02-03T22:14:23.747Z,100424.94
2023-02-03T22:16:50.614Z,100419.69
2023-02-03T22:19:17.613Z,100391.72
2023-02-03T22:21:44.844Z,100397.03
2023-02-03T22:24:11.502Z,100439.13
2023-02-03T22:26:38.066Z,100412.06
2023-02-03T22:29:05.628Z,100391.25
2023-02-03T22:31:32.468Z,100446.56
2023-02-03T22:33:59.102Z,100439.50
2023-02-03T22:36:25.919Z,100436.88
2023-02-03T22:38:52.969Z,100433.75
2023-02-03T22:41:20.901Z,100417.34
2023-02-03T22:43:47.570Z,100426.38
2023-02-03T22:46:14.167Z,100423.69
2023-02-03T22:48:40.765Z,100423.06
2023-02-03T22:51:07.468Z,100431.69
2023-02-03T22:53:34.894Z,100411.72
2023-02-03T22:56:01.675Z,100430.13
2023-02-03T22:58:28.287Z,100433.63
2023-02-03T23:00:54.922Z,100420.69
2023-02-03T23:03:21.615Z,100424.97
2023-02-03T23:05:48.321Z,100441.81
2023-02-03T23:08:16.053Z,100468.66
2023-02-03T23:10:42.646Z,100459.06
2023-02-03T23:13:09.349Z,100444.28
2023-02-03T23:15:36.018Z,100446.03
2023-02-03T23:18:02.739Z,100446.16
2023-02-03T23:20:29.773Z,100451.38
2023-02-03T23:22:56.707Z,100485.50
2023-02-03T23:25:23.418Z,100457.69
2023-02-03T23:27:50.177Z,100465.38
2023-02-03T23:30:17.027Z,100462.88
2023-02-03T23:32:43.693Z,100457.50
2023-02-03T23:35:31.199Z,100444.44
2023-02-03T23:37:57.825Z,100455.50
2023-02-03T23:40:33.721Z,100456.59
2023-02-03T23:43:00.438Z,100450.38
2023-02-03T23:45:33.212Z,100487.88
2023-02-03T23:47:59.937Z,100482.56
2023-02-03T23:50:26.664Z,100480.13
2023-02-03T23:52:53.280Z,100542.31
2023-02-03T23:55:21.850Z,100525.66
2023-02-03T23:57:48.519Z,100607.03
